Frankfort, KY (40601)

12:49 PM EDT del 27 Agosto 2016 (GMT -0400)
Capital City | | Change Station

Alt. 804 ft 38.18 °N, 84.90 °W | Updated 56 minutes ago

Clear
Sereno
88 °F
Sembra 94 °F
N
6
Vento Variabile Vento da Sud

Oggi
Massima -- | Minima -- °F
--% Possibilità di precip.
Ieri
Massima -- | Minima -- °F
Precip. -- in
Pressione 30.09 in
Visibilità 10.0 miglia
Nuvole Sereno
Indice di calore 94 °F
Punto di rugiada 71 °F
Umidità 57%
Piovosità 0.00 in
Spessore del manto nevoso Non disponibile.
7:05 AM 8:16 PM
Luna calante, 23% visible
METAR KFFT 271553Z AUTO 19005KT 10SM CLR 31/22 A3011 RMK AO2 SLP188 T03110217
Pressione 30.09 in
Visibilità 10.0 miglia
Nuvole Sereno
Indice di calore 94 °F
Punto di rugiada 71 °F
Umidità 57%
Piovosità 0.00 in
Spessore del manto nevoso Non disponibile.
7:05 AM 8:16 PM
Luna calante, 23% visible
METAR KFFT 271553Z AUTO 19005KT 10SM CLR 31/22 A3011 RMK AO2 SLP188 T03110217

10-Day Weather Forecast

Almanac

Astronomia

Aug. 27, 2016 Alba Tramonto
Ora attuale
Crepuscolo civile
Crepuscolo nautico
Crepuscolo astronomico
Luna
Estensione della luce visibile
Lunghezza del giorno
Tomorrow will be .
, % of the Moon is Illuminated

Gli estremi di oggi

State Highs State Lows

Community

WunderPhotos

Upload Photos

1,935,377 foto caricate!

WunderBlog® & News

Nearby

Qualità dell'aria

  Qualità dell'aria Indice AQ Inquinante
Not available.

Profondità neve

Stazione Profondità Altitudine

Attività sismica

Città  Distanza Mag. Data & Ora
Minimo Magnitudo Mostrato è 2.5.

Temperature delle acque costiere

Località Temperatura

Stations

Stazioni meteo nelle vicinanze

Ubicazione della stazione Temp. Raffreddamento del vento Punto di rugiada Umidità Vento Precip. Alt. Aggiornato Tipo
                   

Watches & Warnings

There are currently no watches in effect.